Time;durP1;ratioP1;P1;durP2;ratioP2;P2;SDS_P1;SDS_P2;PMS_P1;PMS_P2;Temp;Humidity;BMP_temperature;BMP_pressure;BME280_temperature;BME280_humidity;BME280_pressure;Samples;Min_cycle;Max_cycle;Signal;HPM_P1;HPM_P2
2022/05/15 00:02:13;;;;;;;5.08;2.00;;;;;;;12.53;55.25;99952.34;1790506;79;20987;-73
2022/05/15 00:04:40;;;;;;;3.02;1.90;;;;;;;12.52;55.27;99950.67;1785253;79;20932;-73
2022/05/15 00:07:08;;;;;;;4.55;2.10;;;;;;;12.50;55.35;99949.50;1797412;79;22462;-73
2022/05/15 00:09:35;;;;;;;4.15;1.90;;;;;;;12.47;55.46;99941.02;1811414;79;21023;-74
2022/05/15 00:12:04;;;;;;;7.90;2.20;;;;;;;12.45;55.53;99943.81;1815162;78;21446;-73
2022/05/15 00:14:33;;;;;;;6.35;1.90;;;;;;;12.44;55.61;99942.12;1812058;77;21409;-74
2022/05/15 00:17:00;;;;;;;6.12;1.92;;;;;;;12.43;55.75;99940.95;1807236;79;20998;-72
2022/05/15 00:19:28;;;;;;;4.58;2.40;;;;;;;12.40;55.84;99940.75;1787791;79;21776;-74
2022/05/15 00:21:54;;;;;;;6.45;2.30;;;;;;;12.38;55.87;99942.72;1797424;79;21035;-73
2022/05/15 00:24:21;;;;;;;6.37;2.20;;;;;;;12.39;55.94;99943.55;1811428;78;21026;-74
2022/05/15 00:26:48;;;;;;;6.75;2.17;;;;;;;12.35;56.02;99940.33;1811156;77;21007;-73
2022/05/15 00:29:16;;;;;;;5.45;2.55;;;;;;;12.32;56.08;99940.63;1796873;79;20936;-75
2022/05/15 00:31:43;;;;;;;3.55;2.00;;;;;;;12.31;56.16;99939.80;1798006;79;21818;-73
2022/05/15 00:34:10;;;;;;;9.88;2.50;;;;;;;12.28;56.29;99945.39;1790638;79;20931;-74
2022/05/15 00:36:37;;;;;;;4.35;2.25;;;;;;;12.23;56.31;99945.45;1787130;79;20944;-74
2022/05/15 00:39:05;;;;;;;3.50;1.90;;;;;;;12.19;56.45;99948.89;1780522;79;21416;-74
2022/05/15 00:41:34;;;;;;;6.10;2.20;;;;;;;12.18;56.57;99953.84;1768022;80;20985;-74
2022/05/15 00:44:01;;;;;;;7.20;2.70;;;;;;;12.12;56.64;99950.42;1812960;79;21822;-74
2022/05/15 00:46:36;;;;;;;7.75;2.70;;;;;;;12.08;56.80;99951.70;1789615;79;21441;-74
2022/05/15 00:49:07;;;;;;;8.23;2.67;;;;;;;12.05;56.92;99951.97;1769478;79;21002;-74
2022/05/15 00:51:43;;;;;;;5.17;2.30;;;;;;;12.02;57.04;99954.41;1789443;79;20996;-74
2022/05/15 00:54:37;;;;;;;8.53;1.98;;;;;;;11.99;57.14;99952.06;1805282;79;20957;-74
2022/05/15 00:57:28;;;;;;;6.47;2.20;;;;;;;11.97;57.25;99954.02;1795078;79;21916;-73
2022/05/15 01:00:11;;;;;;;4.00;2.25;;;;;;;11.96;57.23;99956.29;1793914;79;20964;-73
2022/05/15 01:02:48;;;;;;;4.47;1.62;;;;;;;11.94;57.29;99953.44;1761847;79;20941;-74
2022/05/15 01:05:16;;;;;;;5.53;2.20;;;;;;;11.95;57.30;99955.11;1812822;79;20973;-73
2022/05/15 01:07:43;;;;;;;4.03;2.00;;;;;;;11.91;57.44;99955.89;1771309;79;21550;-74
2022/05/15 01:10:13;;;;;;;5.28;2.35;;;;;;;11.87;57.59;99961.13;1780553;79;21893;-74
2022/05/15 01:12:41;;;;;;;5.58;2.22;;;;;;;11.82;57.72;99963.34;1751401;79;21012;-73
2022/05/15 01:15:09;;;;;;;10.13;2.65;;;;;;;11.80;57.85;99961.33;1777168;80;20961;-73
2022/05/15 01:17:37;;;;;;;7.30;2.20;;;;;;;11.75;57.98;99959.06;1798993;79;20967;-73
2022/05/15 01:20:08;;;;;;;6.83;2.65;;;;;;;11.72;58.11;99963.80;1812576;79;21042;-73
2022/05/15 01:22:35;;;;;;;4.53;2.10;;;;;;;11.71;58.22;99960.81;1801723;79;21683;-74
2022/05/15 01:25:04;;;;;;;4.40;1.85;;;;;;;11.68;58.37;99957.97;1797646;77;21011;-75
2022/05/15 01:27:32;;;;;;;4.60;2.30;;;;;;;11.63;58.57;99964.14;1804028;78;21051;-75
2022/05/15 01:29:59;;;;;;;8.13;2.40;;;;;;;11.59;58.69;99961.44;1808660;79;21451;-75
2022/05/15 01:32:26;;;;;;;8.75;2.47;;;;;;;11.56;58.79;99959.05;1798454;79;21419;-75
2022/05/15 01:34:54;;;;;;;6.30;2.30;;;;;;;11.56;59.00;99957.73;1796867;77;22283;-74
2022/05/15 01:37:21;;;;;;;7.20;2.60;;;;;;;11.54;59.11;99958.84;1797984;78;21444;-75
2022/05/15 01:39:48;;;;;;;4.55;2.22;;;;;;;11.51;59.17;99959.14;1787656;79;20955;-74
2022/05/15 01:42:15;;;;;;;7.15;2.42;;;;;;;11.51;59.33;99961.78;1781770;80;21017;-74
2022/05/15 01:44:42;;;;;;;7.95;2.50;;;;;;;11.47;59.48;99963.35;1791151;78;20996;-74
2022/05/15 01:47:10;;;;;;;5.40;2.50;;;;;;;11.40;59.63;99966.22;1785756;80;22239;-76
2022/05/15 01:49:38;;;;;;;8.73;2.77;;;;;;;11.37;59.73;99969.61;1791962;78;21434;-74
2022/05/15 01:52:06;;;;;;;5.30;2.37;;;;;;;11.35;59.86;99974.20;1774810;78;21063;-74
2022/05/15 01:54:33;;;;;;;4.65;2.40;;;;;;;11.35;59.88;99976.36;1759572;80;21059;-74
2022/05/15 01:57:01;;;;;;;8.40;2.40;;;;;;;11.33;60.09;99973.51;1776840;80;20996;-75
2022/05/15 01:59:28;;;;;;;6.87;2.27;;;;;;;11.29;60.11;99980.89;1768623;80;21831;-75
2022/05/15 02:01:56;;;;;;;7.62;2.62;;;;;;;11.27;60.14;99974.88;1775913;78;21004;-73
2022/05/15 02:04:22;;;;;;;6.72;2.52;;;;;;;11.26;60.22;99977.17;1765819;80;21012;-74
2022/05/15 02:06:49;;;;;;;6.75;2.30;;;;;;;11.26;60.23;99985.10;1779194;80;21074;-73
2022/05/15 02:09:16;;;;;;;8.30;2.30;;;;;;;11.26;60.26;99981.14;1796192;80;20961;-74
2022/05/15 02:11:45;;;;;;;8.70;2.50;;;;;;;11.27;60.19;99981.97;1793656;78;20956;-73
2022/05/15 02:14:12;;;;;;;8.75;2.80;;;;;;;11.26;60.21;99983.78;1790750;80;21031;-74
2022/05/15 02:16:39;;;;;;;6.80;2.45;;;;;;;11.25;60.16;99979.95;1787087;78;21016;-74
2022/05/15 02:19:07;;;;;;;6.78;2.35;;;;;;;11.25;60.17;99981.28;1766534;80;21035;-74
2022/05/15 02:21:34;;;;;;;5.75;2.27;;;;;;;11.21;60.21;99983.86;1771198;78;21019;-74
2022/05/15 02:24:01;;;;;;;6.50;2.60;;;;;;;11.19;60.23;99986.61;1787509;79;21798;-73
2022/05/15 02:26:30;;;;;;;7.35;2.50;;;;;;;11.17;60.33;99992.52;1767830;79;20988;-74
2022/05/15 02:28:57;;;;;;;6.35;2.20;;;;;;;11.13;60.42;99992.45;1772012;79;21011;-73
2022/05/15 02:31:24;;;;;;;4.97;2.40;;;;;;;11.07;60.53;99992.49;1785113;78;21093;-73
2022/05/15 02:33:51;;;;;;;4.22;2.10;;;;;;;11.04;60.67;99985.33;1787500;79;21134;-72
2022/05/15 02:36:19;;;;;;;8.58;2.72;;;;;;;11.02;60.69;99984.63;1797538;79;22553;-72
2022/05/15 02:38:47;;;;;;;10.13;2.33;;;;;;;11.02;60.76;99983.31;1795481;79;20988;-72
2022/05/15 02:41:15;;;;;;;5.97;2.50;;;;;;;10.99;60.88;99986.20;1796118;79;21103;-72
2022/05/15 02:43:43;;;;;;;5.60;2.30;;;;;;;10.93;61.04;99996.00;1781355;78;21051;-72
2022/05/15 02:46:10;;;;;;;4.60;1.80;;;;;;;10.89;61.14;99989.64;1787043;79;20948;-74
2022/05/15 02:51:23;;;;;;;6.12;2.17;;;;;;;10.83;61.46;99996.80;1779228;79;21442;-72
2022/05/15 02:53:50;;;;;;;5.00;2.10;;;;;;;10.79;61.64;99998.02;1768046;79;20995;-73
2022/05/15 02:56:24;;;;;;;5.28;2.30;;;;;;;10.79;61.72;100007.74;1797786;79;21391;-72
2022/05/15 02:58:51;;;;;;;5.60;2.15;;;;;;;10.78;61.81;100002.11;1779382;78;21418;-74
2022/05/15 03:01:19;;;;;;;6.47;2.47;;;;;;;10.79;61.90;100007.27;1786785;79;21780;-74
2022/05/15 03:03:46;;;;;;;6.97;2.10;;;;;;;10.79;61.96;100009.06;1780046;79;20948;-74
2022/05/15 03:06:14;;;;;;;4.30;2.02;;;;;;;10.76;62.07;100008.85;1798368;79;21044;-72
2022/05/15 03:08:47;;;;;;;6.22;2.25;;;;;;;10.78;62.14;100015.32;1768965;79;20952;-73
2022/05/15 03:11:14;;;;;;;4.17;2.08;;;;;;;10.78;62.25;100020.12;1767593;81;20991;-73
2022/05/15 03:13:41;;;;;;;5.58;2.10;;;;;;;10.79;62.35;100018.31;1768486;79;22435;-73
2022/05/15 03:16:08;;;;;;;5.72;2.30;;;;;;;10.79;62.49;100024.43;1767341;81;21400;-71
2022/05/15 03:18:45;;;;;;;6.72;2.27;;;;;;;10.79;62.56;100022.27;1767405;81;20964;-72
2022/05/15 03:21:28;;;;;;;7.67;2.20;;;;;;;10.80;62.67;100019.50;1762182;80;21051;-73
2022/05/15 03:23:41;;;;;;;4.55;2.08;;;;;;;10.81;62.73;100018.55;1761332;80;21079;-73
2022/05/15 03:26:09;;;;;;;4.30;2.08;;;;;;;10.82;62.85;100020.23;1789049;80;21824;-75
2022/05/15 03:28:37;;;;;;;4.00;1.72;;;;;;;10.82;63.05;100029.95;1757974;81;20940;-72
2022/05/15 03:31:05;;;;;;;4.75;1.90;;;;;;;10.83;63.12;100020.58;1771323;78;20980;-73
2022/05/15 03:33:33;;;;;;;3.47;1.82;;;;;;;10.87;63.18;100018.49;1789101;80;20988;-72
2022/05/15 03:36:00;;;;;;;5.53;2.08;;;;;;;10.93;63.21;100015.82;1775146;80;20964;-73
2022/05/15 03:38:27;;;;;;;8.15;2.17;;;;;;;10.96;63.21;100019.51;1757966;81;22471;-73
2022/05/15 03:40:54;;;;;;;5.70;1.95;;;;;;;10.99;63.25;100013.46;1782359;79;20996;-72
2022/05/15 03:43:21;;;;;;;4.65;1.95;;;;;;;11.02;63.29;100017.18;1772356;78;21293;-73
2022/05/15 03:45:48;;;;;;;6.08;1.90;;;;;;;11.08;63.30;100018.44;1781703;80;21016;-74
2022/05/15 03:48:17;;;;;;;4.40;1.70;;;;;;;11.12;63.25;100022.50;1765120;80;20949;-72
2022/05/15 03:50:45;;;;;;;4.80;1.98;;;;;;;11.16;63.26;100022.57;1758980;80;21931;-72
2022/05/15 03:53:12;;;;;;;5.33;2.12;;;;;;;11.20;63.18;100014.74;1780341;80;21433;-73
2022/05/15 03:55:39;;;;;;;6.83;2.00;;;;;;;11.26;63.15;100013.35;1788289;78;20957;-73
2022/05/15 03:58:06;;;;;;;6.08;2.02;;;;;;;11.29;63.11;100009.97;1770421;78;21071;-72
2022/05/15 04:00:34;;;;;;;4.78;1.80;;;;;;;11.36;63.05;100003.14;1761218;80;21430;-72
2022/05/15 04:03:01;;;;;;;5.08;2.08;;;;;;;11.40;62.93;99999.77;1765886;80;21723;-74
2022/05/15 04:05:29;;;;;;;3.95;2.00;;;;;;;11.46;62.84;100001.36;1778692;80;20992;-72
2022/05/15 04:07:57;;;;;;;4.80;1.95;;;;;;;11.54;62.70;100004.65;1784193;78;21001;-73
2022/05/15 04:10:24;;;;;;;6.12;2.20;;;;;;;11.58;62.52;100003.42;1783872;80;21383;-73
2022/05/15 04:12:51;;;;;;;6.42;2.22;;;;;;;11.65;62.36;99994.42;1773121;80;21876;-73
2022/05/15 04:15:20;;;;;;;2.80;2.10;;;;;;;11.72;62.25;99998.20;1774869;78;21373;-73
2022/05/15 04:17:52;;;;;;;3.83;1.95;;;;;;;11.81;62.12;100000.05;1782020;78;20952;-73
2022/05/15 04:20:22;;;;;;;7.47;2.42;;;;;;;11.90;61.91;100001.86;1763544;80;21063;-74
2022/05/15 04:22:50;;;;;;;5.17;2.12;;;;;;;12.01;61.77;100010.14;1793820;80;20941;-73
2022/05/15 04:25:18;;;;;;;5.30;2.15;;;;;;;12.10;61.56;100005.83;1788478;80;21008;-74
2022/05/15 04:27:45;;;;;;;5.97;2.40;;;;;;;12.18;61.27;100017.39;1789920;80;21799;-74
2022/05/15 04:30:17;;;;;;;4.20;1.75;;;;;;;12.26;60.94;100012.72;1767127;80;21071;-74
2022/05/15 04:32:44;;;;;;;6.00;1.85;;;;;;;12.33;60.87;100012.47;1776629;78;21379;-74
2022/05/15 04:35:12;;;;;;;6.28;2.10;;;;;;;12.43;60.62;100011.13;1777527;80;20913;-76
2022/05/15 04:37:39;;;;;;;6.53;2.00;;;;;;;12.51;60.52;100014.74;1779992;80;21036;-74
2022/05/15 04:40:08;;;;;;;8.23;2.17;;;;;;;12.60;60.20;100013.89;1794512;80;21452;-74
2022/05/15 04:42:35;;;;;;;6.75;2.10;;;;;;;12.70;59.99;100015.19;1793726;78;21071;-74
2022/05/15 04:45:02;;;;;;;4.47;1.77;;;;;;;12.81;59.24;100017.66;1790416;80;21114;-75
2022/05/15 04:47:29;;;;;;;5.33;1.80;;;;;;;12.91;59.22;100009.67;1790108;78;20941;-75
2022/05/15 04:49:56;;;;;;;7.47;2.05;;;;;;;13.03;58.48;100016.48;1791392;78;21040;-76
2022/05/15 04:52:23;;;;;;;5.67;2.10;;;;;;;13.15;58.10;100013.14;1792386;80;21765;-75
2022/05/15 04:54:50;;;;;;;6.83;1.80;;;;;;;13.23;57.87;100005.31;1758747;80;21388;-76
2022/05/15 04:57:19;;;;;;;5.80;1.80;;;;;;;13.31;57.44;100002.73;1765586;80;20988;-75
2022/05/15 04:59:46;;;;;;;5.40;2.02;;;;;;;13.44;57.45;100007.21;1764539;81;21028;-75
2022/05/15 05:02:13;;;;;;;6.95;1.85;;;;;;;13.54;56.72;100001.84;1768482;80;21004;-71
2022/05/15 05:04:40;;;;;;;6.65;1.90;;;;;;;13.62;56.50;100005.08;1765822;80;21748;-72
2022/05/15 05:07:08;;;;;;;4.30;1.80;;;;;;;13.67;56.17;99995.66;1783597;78;20837;-73
2022/05/15 05:09:37;;;;;;;6.50;1.90;;;;;;;13.77;56.19;99992.94;1768428;78;21430;-74
2022/05/15 05:12:06;;;;;;;5.03;1.70;;;;;;;13.89;55.52;99997.02;1764390;78;21557;-75
2022/05/15 05:14:33;;;;;;;5.60;1.80;;;;;;;13.97;55.12;99989.14;1774816;78;21039;-74
2022/05/15 05:17:00;;;;;;;6.35;1.70;;;;;;;14.05;54.71;99987.05;1794753;80;21930;-74
2022/05/15 05:19:27;;;;;;;4.92;1.80;;;;;;;14.14;54.98;99986.13;1773483;80;21031;-75
2022/05/15 05:21:54;;;;;;;5.10;1.60;;;;;;;14.29;54.77;99990.41;1793987;79;21450;-75
2022/05/15 05:24:22;;;;;;;7.83;1.95;;;;;;;14.41;54.73;99990.98;1787721;79;21040;-75
2022/05/15 05:26:49;;;;;;;7.67;2.20;;;;;;;14.53;54.31;99984.44;1781140;80;21056;-74
2022/05/15 05:29:16;;;;;;;4.90;1.80;;;;;;;14.59;53.84;99986.48;1810255;79;22601;-74
2022/05/15 05:31:43;;;;;;;5.92;2.20;;;;;;;14.65;53.91;99983.17;1784762;79;21054;-74
2022/05/15 05:34:10;;;;;;;5.97;1.82;;;;;;;14.74;53.84;99989.38;1796286;79;21015;-75
2022/05/15 05:36:39;;;;;;;4.67;1.98;;;;;;;14.85;53.58;99993.09;1786251;78;21000;-75
2022/05/15 05:39:06;;;;;;;5.03;1.82;;;;;;;14.95;52.91;99997.79;1794880;77;21008;-75
2022/05/15 05:41:33;;;;;;;4.78;1.90;;;;;;;15.04;52.54;100005.31;1780606;79;21832;-75
2022/05/15 05:44:00;;;;;;;8.48;2.00;;;;;;;15.09;52.06;100001.69;1780518;79;20916;-75
2022/05/15 05:46:28;;;;;;;10.28;2.30;;;;;;;15.15;52.42;99991.25;1787532;77;21024;-76
2022/05/15 05:48:56;;;;;;;5.08;1.60;;;;;;;15.26;52.30;99987.97;1763985;80;21462;-76
2022/05/15 05:51:23;;;;;;;3.58;1.75;;;;;;;15.37;52.30;99989.83;1779640;80;21001;-75
2022/05/15 05:53:50;;;;;;;6.05;2.08;;;;;;;15.45;52.06;99987.19;1807810;79;21526;-76
2022/05/15 05:56:17;;;;;;;6.03;1.72;;;;;;;15.48;51.94;99982.03;1797499;79;21510;-76
2022/05/15 05:58:45;;;;;;;4.72;1.87;;;;;;;15.56;52.17;99979.39;1780537;79;21053;-75
2022/05/15 06:01:13;;;;;;;5.08;1.72;;;;;;;15.64;51.58;99975.45;1780399;79;21019;-76
2022/05/15 06:06:26;;;;;;;5.78;1.60;;;;;;;15.75;51.20;99971.63;1792802;77;21814;-74
2022/05/15 06:08:54;;;;;;;5.80;1.85;;;;;;;15.78;51.17;99970.46;1762487;79;20989;-74
2022/05/15 06:11:21;;;;;;;9.80;1.98;;;;;;;15.83;50.77;99965.48;1814651;77;21079;-73
2022/05/15 06:13:49;;;;;;;7.62;2.10;;;;;;;15.89;50.60;99968.30;1802986;79;21004;-76
2022/05/15 06:16:16;;;;;;;6.05;2.00;;;;;;;15.96;50.23;99960.48;1780707;79;21565;-76
2022/05/15 06:18:43;;;;;;;6.42;2.08;;;;;;;16.08;50.70;99963.64;1761837;80;21949;-74
2022/05/15 06:21:10;;;;;;;9.83;2.20;;;;;;;16.20;50.28;99954.30;1795817;79;21284;-76
2022/05/15 06:23:37;;;;;;;6.87;2.08;;;;;;;16.34;49.32;99960.30;1786558;79;21028;-74
2022/05/15 06:26:04;;;;;;;6.80;2.10;;;;;;;16.40;49.33;99959.59;1792367;79;21004;-76
2022/05/15 06:28:34;;;;;;;5.80;1.90;;;;;;;16.50;49.37;99956.75;1795301;79;21032;-76
2022/05/15 06:31:02;;;;;;;9.08;2.00;;;;;;;16.64;49.34;99957.90;1800642;79;22972;-75
2022/05/15 06:33:29;;;;;;;4.92;1.90;;;;;;;16.66;48.21;99953.22;1797947;79;21162;-74
2022/05/15 06:35:58;;;;;;;8.03;1.87;;;;;;;16.64;48.89;99957.90;1801495;79;20997;-74
2022/05/15 06:38:25;;;;;;;5.75;1.80;;;;;;;16.64;48.79;99957.39;1797202;78;21502;-75
2022/05/15 06:40:52;;;;;;;5.12;2.08;;;;;;;16.65;48.89;99967.05;1786981;79;21019;-74
2022/05/15 06:43:19;;;;;;;7.58;1.95;;;;;;;16.59;48.55;99957.89;1772339;79;22530;-73
2022/05/15 06:45:48;;;;;;;7.15;2.20;;;;;;;16.58;48.96;99961.56;1789676;77;21036;-73
2022/05/15 06:48:15;;;;;;;5.10;1.92;;;;;;;16.61;48.92;99956.41;1787199;79;21025;-75
2022/05/15 06:50:42;;;;;;;3.72;1.52;;;;;;;16.66;48.87;99951.89;1794919;79;21000;-74
2022/05/15 06:53:12;;;;;;;6.55;1.75;;;;;;;16.70;48.87;99953.26;1771962;79;21516;-74
2022/05/15 06:58:11;;;;;;;4.47;1.82;;;;;;;16.77;49.32;99948.37;1762714;78;21065;-73
2022/05/15 07:00:38;;;;;;;8.20;2.12;;;;;;;16.84;49.60;99947.19;1802293;79;21043;-74
2022/05/15 07:03:06;;;;;;;5.40;1.72;;;;;;;16.94;48.99;99954.48;1762530;80;21490;-74
2022/05/15 07:05:33;;;;;;;4.47;1.60;;;;;;;17.05;49.30;99949.27;1779138;80;21079;-73
2022/05/15 07:08:02;;;;;;;5.65;1.60;;;;;;;17.19;48.41;99950.39;1767083;79;21827;-74
2022/05/15 07:10:30;;;;;;;7.05;2.02;;;;;;;17.32;46.33;99955.47;1761893;80;20989;-75
2022/05/15 07:13:04;;;;;;;6.60;1.75;;;;;;;17.34;46.46;99953.95;1789245;77;21022;-75
2022/05/15 07:15:32;;;;;;;7.22;1.75;;;;;;;17.40;46.42;99957.27;1762599;80;21353;-75
2022/05/15 07:17:59;;;;;;;6.50;1.80;;;;;;;17.46;45.79;99964.05;1780819;78;21043;-74
2022/05/15 07:20:26;;;;;;;6.15;1.77;;;;;;;17.50;45.65;99963.72;1777645;80;21830;-76
2022/05/15 07:22:53;;;;;;;5.37;1.50;;;;;;;17.51;45.62;99978.23;1776342;80;21012;-78
2022/05/15 07:25:22;;;;;;;7.72;1.65;;;;;;;17.54;45.18;99979.70;1783790;79;21075;-80
2022/05/15 07:27:49;;;;;;;6.87;1.60;;;;;;;17.57;44.95;99971.36;1765545;79;21039;-77
2022/05/15 07:30:16;;;;;;;6.22;1.90;;;;;;;17.57;45.14;99976.70;1757904;80;21019;-76
2022/05/15 07:32:43;;;;;;;8.58;2.00;;;;;;;17.58;44.93;99977.02;1765875;80;21853;-79
2022/05/15 07:35:10;;;;;;;5.40;1.60;;;;;;;17.52;44.88;99978.55;1769987;80;21356;-78
2022/05/15 07:37:38;;;;;;;4.17;1.57;;;;;;;17.49;45.20;99975.41;1756760;81;21039;-79
2022/05/15 07:40:06;;;;;;;6.65;1.50;;;;;;;17.54;45.13;99985.05;1760155;80;21470;-78
2022/05/15 07:42:33;;;;;;;5.72;1.67;;;;;;;17.61;44.45;99982.83;1786870;80;21024;-79
2022/05/15 07:45:01;;;;;;;5.00;1.70;;;;;;;17.66;44.36;99986.30;1781757;80;21814;-78
2022/05/15 07:47:28;;;;;;;4.72;1.62;;;;;;;17.64;44.54;100007.02;1786729;80;21071;-78
2022/05/15 07:49:56;;;;;;;4.33;1.52;;;;;;;17.65;44.79;99994.81;1787938;80;21427;-77
2022/05/15 07:52:24;;;;;;;4.87;1.80;;;;;;;17.69;44.46;99996.17;1769953;80;21028;-78
2022/05/15 07:54:51;;;;;;;3.75;1.72;;;;;;;17.69;45.00;99986.82;1759160;80;21023;-74
2022/05/15 07:57:18;;;;;;;7.53;1.70;;;;;;;17.71;44.60;100008.84;1763786;80;21954;-75
2022/05/15 07:59:45;;;;;;;4.35;1.67;;;;;;;17.76;44.29;100007.46;1761297;80;21423;-80
2022/05/15 08:02:12;;;;;;;4.08;1.65;;;;;;;17.82;43.28;99998.25;1784378;80;21031;-82
2022/05/15 08:10:10;;;;;;;4.40;1.50;;;;;;;18.16;43.89;99986.31;1774390;79;22479;-75
2022/05/15 08:12:37;;;;;;;6.12;1.57;;;;;;;18.22;43.59;99989.58;1770949;79;20915;-78
2022/05/15 08:15:06;;;;;;;3.75;1.47;;;;;;;18.24;43.39;99991.09;1779345;79;21042;-82
2022/05/15 08:17:33;;;;;;;3.62;1.22;;;;;;;18.33;43.23;99986.47;1801698;78;21016;-80
2022/05/15 08:25:31;;;;;;;3.52;1.40;;;;;;;18.75;41.76;99975.22;1790028;79;21019;-80
2022/05/15 08:27:58;;;;;;;6.78;1.77;;;;;;;18.90;40.87;99971.70;1791030;79;21062;-79
2022/05/15 08:30:26;;;;;;;4.15;1.22;;;;;;;18.92;40.54;99971.86;1792110;79;21574;-79
2022/05/15 08:32:54;;;;;;;4.28;1.52;;;;;;;18.99;40.69;99967.91;1799369;79;21031;-79
2022/05/15 08:35:22;;;;;;;5.53;1.42;;;;;;;19.11;40.84;99967.78;1802943;77;20998;-76
2022/05/15 08:37:50;;;;;;;4.00;1.10;;;;;;;19.22;40.33;99966.47;1785910;79;21573;-79
2022/05/15 08:40:21;;;;;;;4.97;1.30;;;;;;;19.28;39.53;99963.84;1787750;79;20983;-79
2022/05/15 08:42:56;;;;;;;5.47;1.30;;;;;;;19.16;39.02;99973.39;1808042;77;21527;-74
2022/05/15 08:45:26;;;;;;;2.90;1.05;;;;;;;18.92;39.36;99979.89;1784773;79;21116;-79
2022/05/15 08:48:09;;;;;;;2.75;1.05;;;;;;;18.81;39.41;99965.09;1782722;79;21785;-76
2022/05/15 08:50:41;;;;;;;4.62;1.05;;;;;;;18.97;39.42;99973.97;1793370;78;21455;-78
2022/05/15 08:53:14;;;;;;;2.57;1.13;;;;;;;19.15;39.38;99969.88;1808142;78;21031;-81
2022/05/15 08:55:49;;;;;;;3.42;1.22;;;;;;;19.24;39.63;99978.64;1796727;79;21023;-77
2022/05/15 08:58:31;;;;;;;4.35;1.57;;;;;;;19.22;38.56;99965.95;1793833;79;21039;-78
2022/05/15 09:00:58;;;;;;;4.25;1.30;;;;;;;19.05;38.84;99966.67;1774236;79;21518;-77
2022/05/15 09:03:28;;;;;;;3.65;1.30;;;;;;;18.89;39.92;99969.53;1780269;79;20992;-81
2022/05/15 09:06:27;;;;;;;2.17;1.00;;;;;;;18.97;39.05;99965.94;1780718;79;21505;-78
2022/05/15 09:09:37;;;;;;;5.60;1.30;;;;;;;19.10;38.36;99956.21;1795679;78;21088;-76
2022/05/15 09:12:22;;;;;;;4.17;1.40;;;;;;;19.16;38.29;99942.59;1810001;78;21546;-79
2022/05/15 09:15:12;;;;;;;5.47;1.50;;;;;;;19.19;38.65;99944.89;1799817;79;21924;-79
2022/05/15 09:18:03;;;;;;;4.97;1.30;;;;;;;19.21;38.90;99946.89;1798260;79;21058;-79
2022/05/15 09:20:55;;;;;;;4.80;1.05;;;;;;;19.19;38.60;99955.60;1796689;78;21069;-79
2022/05/15 09:23:41;;;;;;;3.90;1.10;;;;;;;19.01;38.32;99956.50;1791124;79;21042;-81
2022/05/15 09:26:22;;;;;;;3.47;1.10;;;;;;;18.91;39.00;99948.77;1788108;79;21069;-88
2022/05/15 09:28:58;;;;;;;2.15;1.05;;;;;;;19.01;39.29;99944.45;1797582;78;22560;-83
2022/05/15 09:31:29;;;;;;;3.85;1.40;;;;;;;19.18;39.43;99948.59;1802285;78;21058;-76
2022/05/15 09:34:03;;;;;;;3.17;1.25;;;;;;;19.38;37.08;99940.27;1801546;78;21064;-76
2022/05/15 09:36:39;;;;;;;4.97;1.25;;;;;;;19.44;36.83;99939.53;1773452;79;21137;-81
2022/05/15 09:39:17;;;;;;;9.50;1.60;;;;;;;19.45;36.94;99933.14;1777298;80;21005;-81
2022/05/15 09:44:34;;;;;;;3.45;1.25;;;;;;;19.31;37.33;99934.55;1770700;78;21510;-80
2022/05/15 09:47:24;;;;;;;4.30;1.40;;;;;;;19.10;37.17;99929.44;1770589;78;21586;-81
2022/05/15 09:49:51;;;;;;;5.05;2.83;;;;;;;18.97;37.96;99941.84;1773133;78;20987;-75
2022/05/15 09:52:34;;;;;;;11.63;5.80;;;;;;;18.92;38.74;99935.73;1783512;79;21042;-74
2022/05/15 09:55:24;;;;;;;7.05;3.85;;;;;;;19.06;38.44;99924.66;1770879;79;22550;-78
2022/05/15 09:58:00;;;;;;;4.33;2.27;;;;;;;19.26;38.72;99925.73;1783297;78;21039;-74
2022/05/15 10:00:29;;;;;;;5.15;1.30;;;;;;;19.40;38.59;99924.87;1778756;79;21538;-74
2022/05/15 10:03:05;;;;;;;5.55;1.57;;;;;;;19.42;37.91;99920.66;1775660;79;21503;-76
2022/05/15 10:05:34;;;;;;;5.62;1.40;;;;;;;19.42;37.10;99922.83;1770647;79;21503;-75
2022/05/15 10:08:17;;;;;;;4.08;1.45;;;;;;;19.37;37.38;99918.53;1772472;78;22518;-75
2022/05/15 10:10:59;;;;;;;2.58;1.45;;;;;;;19.35;37.25;99899.66;1781190;78;20972;-72
2022/05/15 10:13:50;;;;;;;3.90;1.30;;;;;;;19.28;37.01;99906.78;1782887;78;21667;-79
2022/05/15 10:16:24;;;;;;;3.40;1.25;;;;;;;19.10;37.32;99895.98;1760505;79;21490;-72
2022/05/15 10:19:17;;;;;;;4.92;1.42;;;;;;;18.94;38.08;99915.47;1782544;79;21052;-77
2022/05/15 10:21:49;;;;;;;4.05;1.15;;;;;;;18.82;39.08;99924.48;1783235;79;21490;-77
2022/05/15 10:24:21;;;;;;;4.40;1.30;;;;;;;18.78;39.62;99922.67;1744432;79;21103;-73
2022/05/15 10:27:07;;;;;;;3.27;1.20;;;;;;;18.84;39.71;99908.56;1760228;80;21523;-73
2022/05/15 10:29:42;;;;;;;4.67;1.30;;;;;;;18.92;39.63;99908.97;1781559;79;21050;-76
2022/05/15 10:32:20;;;;;;;5.45;1.30;;;;;;;19.07;40.52;99911.59;1767827;79;21553;-79
2022/05/15 10:34:47;;;;;;;4.75;1.37;;;;;;;19.39;40.48;99905.77;1782351;79;23167;-76
2022/05/15 10:37:44;;;;;;;4.83;1.60;;;;;;;19.94;40.26;99902.92;1783378;79;21149;-82
2022/05/15 10:40:31;;;;;;;4.03;1.62;;;;;;;20.50;38.85;99896.23;1777437;79;20916;-75
2022/05/15 10:43:25;;;;;;;4.03;1.52;;;;;;;20.70;36.70;99900.36;1779738;78;20969;-78
2022/05/15 10:46:16;;;;;;;6.95;1.40;;;;;;;20.51;36.89;99895.72;1781169;79;20904;-78
2022/05/15 10:49:13;;;;;;;3.75;1.20;;;;;;;20.32;37.39;99896.39;1769914;79;22316;-78
2022/05/15 10:52:08;;;;;;;11.30;1.62;;;;;;;20.11;37.21;99903.98;1770842;79;21039;-78
2022/05/15 10:57:54;;;;;;;4.75;1.52;;;;;;;19.80;37.51;99902.51;1766784;79;20985;-79
2022/05/15 11:00:38;;;;;;;4.78;1.50;;;;;;;19.69;36.73;99905.20;1735675;79;20952;-77
2022/05/15 11:03:27;;;;;;;3.40;1.30;;;;;;;19.59;36.20;99899.81;1800019;79;21805;-79
2022/05/15 11:06:09;;;;;;;2.92;1.40;;;;;;;19.48;37.19;99896.28;1783389;79;21008;-78
2022/05/15 11:08:55;;;;;;;5.15;1.50;;;;;;;19.40;38.02;99899.42;1772783;79;21000;-78
2022/05/15 11:11:49;;;;;;;6.53;1.55;;;;;;;19.36;38.38;99904.00;1755728;79;21102;-78
2022/05/15 11:14:36;;;;;;;5.45;1.50;;;;;;;19.25;38.11;99907.17;1771654;79;21031;-79
2022/05/15 11:17:23;;;;;;;3.85;1.42;;;;;;;19.12;38.68;99903.85;1771064;79;22598;-78
2022/05/15 11:19:50;;;;;;;7.60;1.80;;;;;;;19.10;38.75;99904.02;1767770;79;20968;-79
2022/05/15 11:22:46;;;;;;;3.42;1.25;;;;;;;19.13;39.29;99901.49;1771083;81;20942;-78
2022/05/15 11:25:25;;;;;;;5.17;1.75;;;;;;;19.25;39.55;99901.82;1777043;79;21058;-77
2022/05/15 11:28:13;;;;;;;4.92;1.60;;;;;;;19.66;39.36;99900.72;1783315;79;21011;-79
2022/05/15 11:30:42;;;;;;;5.78;3.42;;;;;;;19.97;38.01;99891.80;1771858;79;22480;-78
2022/05/15 11:33:36;;;;;;;7.35;2.50;;;;;;;20.11;37.77;99891.92;1773335;79;20992;-78
2022/05/15 11:36:30;;;;;;;8.50;1.42;;;;;;;20.16;37.86;99892.97;1770497;79;20996;-77
2022/05/15 11:39:17;;;;;;;3.45;1.40;;;;;;;20.17;36.63;99900.02;1780693;79;20949;-78
2022/05/15 11:42:08;;;;;;;3.42;1.72;;;;;;;20.27;36.88;99901.02;1771664;79;21145;-77
2022/05/15 11:44:35;;;;;;;8.05;1.90;;;;;;;20.57;36.65;99890.40;1767179;79;21481;-78
2022/05/15 11:47:32;;;;;;;6.15;1.87;;;;;;;20.99;35.95;99879.11;1774956;79;21026;-78
2022/05/15 11:50:25;;;;;;;6.12;2.90;;;;;;;21.31;34.69;99872.71;1771247;79;20944;-77
2022/05/15 11:52:59;;;;;;;7.90;3.40;;;;;;;21.29;33.59;99869.41;1764805;79;21039;-78
2022/05/15 11:55:46;;;;;;;6.30;2.70;;;;;;;21.21;33.80;99871.73;1776973;79;21043;-78
2022/05/15 11:58:36;;;;;;;2.98;1.40;;;;;;;21.19;33.09;99878.34;1771383;79;22463;-77
2022/05/15 12:01:10;;;;;;;3.77;1.40;;;;;;;21.01;32.84;99860.94;1771907;79;21067;-78
2022/05/15 12:03:55;;;;;;;6.03;1.80;;;;;;;20.76;33.67;99862.52;1771449;79;20992;-78
2022/05/15 12:06:29;;;;;;;5.10;2.45;;;;;;;20.66;33.50;99853.49;1770831;79;20932;-78
2022/05/15 12:09:23;;;;;;;8.45;3.22;;;;;;;20.51;33.50;99857.64;1771323;79;20943;-78
2022/05/15 12:11:51;;;;;;;4.87;2.22;;;;;;;20.56;34.15;99848.50;1789990;78;21793;-78
2022/05/15 12:14:32;;;;;;;4.37;2.17;;;;;;;20.98;32.92;99849.27;1779973;79;20945;-78
2022/05/15 12:17:29;;;;;;;5.25;2.17;;;;;;;21.31;32.63;99831.08;1771241;79;20987;-79
2022/05/15 12:20:17;;;;;;;9.03;4.78;;;;;;;21.50;32.98;99836.98;1771273;79;20995;-78